createdAt,value
2019-01-12T00:03:42.010Z,44.00
2019-01-12T00:08:48.433Z,37.43
2019-01-12T00:13:54.573Z,39.13
2019-01-12T00:19:01.413Z,38.20
2019-01-12T00:24:07.970Z,36.57
2019-01-12T00:29:14.568Z,29.50
2019-01-12T00:34:21.078Z,34.53
2019-01-12T00:39:27.636Z,34.60
2019-01-12T00:44:35.022Z,31.43
2019-01-12T00:49:41.607Z,34.60
2019-01-12T00:54:48.589Z,38.70
2019-01-12T00:59:55.658Z,33.87
2019-01-12T01:05:02.365Z,38.83
2019-01-12T01:10:17.107Z,45.50
2019-01-12T01:15:24.665Z,33.30
2019-01-12T01:20:34.153Z,39.17
2019-01-12T01:25:44.319Z,40.57
2019-01-12T01:30:50.976Z,42.80
2019-01-12T01:35:57.627Z,37.13
2019-01-12T01:41:04.696Z,34.93
2019-01-12T01:46:12.182Z,39.13
2019-01-12T01:51:18.616Z,45.53
2019-01-12T01:56:25.319Z,35.70
2019-01-12T02:01:32.955Z,35.17
2019-01-12T02:06:44.859Z,38.63
2019-01-12T02:11:51.798Z,39.97
2019-01-12T02:16:58.285Z,37.83
2019-01-12T02:22:07.151Z,33.40
2019-01-12T02:27:13.854Z,44.40
2019-01-12T02:32:20.556Z,33.43
2019-01-12T02:37:27.113Z,42.60
2019-01-12T02:42:33.374Z,46.10
2019-01-12T02:47:39.574Z,36.40
2019-01-12T02:52:46.379Z,31.83
2019-01-12T02:57:53.935Z,30.40
2019-01-12T03:03:00.839Z,37.40
2019-01-12T03:08:07.354Z,34.30
2019-01-12T03:13:14.022Z,32.80
2019-01-12T03:18:20.655Z,35.30
2019-01-12T03:23:27.278Z,47.97
2019-01-12T03:28:33.516Z,40.70
2019-01-12T03:33:40.530Z,40.07
2019-01-12T03:38:47.666Z,46.27
2019-01-12T03:43:54.623Z,37.97
2019-01-12T03:49:00.944Z,51.77
2019-01-12T03:54:08.374Z,33.77
2019-01-12T03:59:15.191Z,31.67
2019-01-12T04:04:21.371Z,43.97
2019-01-12T04:09:28.689Z,35.77
2019-01-12T04:14:35.415Z,41.73
2019-01-12T04:19:41.857Z,41.07
2019-01-12T04:24:48.032Z,46.03
2019-01-12T04:29:53.845Z,36.50
2019-01-12T04:35:00.249Z,37.50
2019-01-12T04:40:12.736Z,43.63
2019-01-12T04:45:21.621Z,35.83
2019-01-12T04:50:28.200Z,33.33
2019-01-12T04:55:41.247Z,44.67
2019-01-12T05:00:43.495Z,42.60
2019-01-12T05:05:51.375Z,34.73
2019-01-12T05:10:58.010Z,32.37
2019-01-12T05:16:05.721Z,28.73
2019-01-12T05:21:13.543Z,32.00
2019-01-12T05:26:20.329Z,35.43
2019-01-12T05:31:27.435Z,36.47
2019-01-12T05:36:34.281Z,29.63
2019-01-12T05:41:41.881Z,30.10
2019-01-12T05:46:48.699Z,31.90
2019-01-12T05:51:55.254Z,30.77
2019-01-12T05:57:01.392Z,28.83
2019-01-12T06:02:08.353Z,33.43
2019-01-12T06:07:14.869Z,34.70
2019-01-12T06:12:21.579Z,38.47
2019-01-12T06:17:29.524Z,37.40
2019-01-12T06:22:36.388Z,36.13
2019-01-12T06:27:43.778Z,33.03
2019-01-12T06:32:50.573Z,34.40
2019-01-12T06:37:57.813Z,21.47
2019-01-12T06:43:03.714Z,32.43
2019-01-12T06:48:09.531Z,38.47
2019-01-12T06:53:15.396Z,28.97
2019-01-12T06:58:23.391Z,37.40
2019-01-12T07:03:30.196Z,36.40
2019-01-12T07:08:36.035Z,34.67
2019-01-12T07:13:42.773Z,29.10
2019-01-12T07:18:48.468Z,29.13
2019-01-12T07:23:58.116Z,29.87
2019-01-12T07:29:05.279Z,28.57
2019-01-12T07:34:13.261Z,31.00
2019-01-12T07:39:19.078Z,34.40
2019-01-12T07:44:24.892Z,31.90
2019-01-12T07:49:34.829Z,23.73
2019-01-12T07:54:40.984Z,33.37
2019-01-12T07:59:46.844Z,27.13
2019-01-12T08:04:54.314Z,30.30
2019-01-12T08:10:00.728Z,32.40
2019-01-12T08:15:08.102Z,31.27
2019-01-12T08:20:15.307Z,32.40
2019-01-12T08:25:24.387Z,22.30
2019-01-12T08:30:30.561Z,31.03
2019-01-12T08:35:38.157Z,28.17
2019-01-12T08:40:44.520Z,25.43
2019-01-12T08:45:50.823Z,28.03
2019-01-12T08:50:57.564Z,26.83
2019-01-12T08:56:04.886Z,21.77
2019-01-12T09:01:11.612Z,26.47
2019-01-12T09:06:17.931Z,24.03
2019-01-12T09:11:24.492Z,23.40
2019-01-12T09:16:31.845Z,19.10
2019-01-12T09:21:38.281Z,22.83
2019-01-12T09:26:45.102Z,19.73
2019-01-12T09:31:52.130Z,13.67
2019-01-12T09:36:59.767Z,15.90
2019-01-12T09:42:07.484Z,12.43
2019-01-12T09:47:16.033Z,14.63
2019-01-12T09:52:25.347Z,7.30
2019-01-12T09:57:31.857Z,8.47
2019-01-12T10:02:41.433Z,8.70
2019-01-12T10:07:48.324Z,8.17
2019-01-12T10:12:55.194Z,6.53
2019-01-12T10:18:01.949Z,5.97
2019-01-12T10:23:09.726Z,5.27
2019-01-12T10:28:16.816Z,6.43
2019-01-12T10:33:24.029Z,4.53
2019-01-12T10:38:31.989Z,5.43
2019-01-12T10:43:39.059Z,6.00
2019-01-12T10:48:46.063Z,4.97
2019-01-12T10:53:53.068Z,6.23
2019-01-12T10:59:01.141Z,6.43
2019-01-12T11:04:08.728Z,4.90
2019-01-12T11:09:16.468Z,3.23
2019-01-12T11:14:23.555Z,3.53
2019-01-12T11:19:30.959Z,4.07
2019-01-12T11:24:39.271Z,4.37
2019-01-12T11:29:47.615Z,4.47
2019-01-12T11:34:54.585Z,3.07
2019-01-12T11:40:01.651Z,4.53
2019-01-12T11:45:09.431Z,4.60
2019-01-12T11:50:17.802Z,5.67
2019-01-12T11:55:24.943Z,3.87
2019-01-12T12:00:32.507Z,4.40
2019-01-12T12:05:39.689Z,5.47
2019-01-12T12:10:47.176Z,3.63
2019-01-12T12:15:54.833Z,4.43
2019-01-12T12:21:00.908Z,3.87
2019-01-12T12:26:07.808Z,4.07
2019-01-12T12:31:15.539Z,3.97
2019-01-12T12:36:22.568Z,4.00
2019-01-12T12:41:29.383Z,2.63
2019-01-12T12:46:35.646Z,3.63
2019-01-12T12:51:41.937Z,4.10
2019-01-12T12:56:50.238Z,3.50
2019-01-12T13:01:57.569Z,5.80
2019-01-12T13:07:04.396Z,3.97
2019-01-12T13:12:11.592Z,3.90
2019-01-12T13:17:18.998Z,5.53
2019-01-12T13:22:26.883Z,7.27
2019-01-12T13:27:39.829Z,4.07
2019-01-12T13:32:43.610Z,3.93
2019-01-12T13:37:51.052Z,5.27
2019-01-12T13:42:58.740Z,4.20
2019-01-12T13:48:05.165Z,6.40
2019-01-12T13:53:11.828Z,5.77
2019-01-12T13:58:20.199Z,6.13
2019-01-12T14:03:27.549Z,5.90
2019-01-12T14:08:33.752Z,5.30
2019-01-12T14:13:39.694Z,6.27
2019-01-12T14:18:45.675Z,8.03
2019-01-12T14:23:51.256Z,6.07
2019-01-12T14:28:59.386Z,8.30
2019-01-12T14:34:07.432Z,6.93
2019-01-12T14:39:13.180Z,6.70
2019-01-12T14:44:19.388Z,5.90
2019-01-12T14:49:25.558Z,5.67
2019-01-12T14:54:31.205Z,7.67
2019-01-12T14:59:36.805Z,7.57
2019-01-12T15:04:42.736Z,8.10
2019-01-12T15:09:48.670Z,7.37
2019-01-12T15:14:54.952Z,7.30
2019-01-12T15:20:01.152Z,6.50
2019-01-12T15:25:09.756Z,8.60
2019-01-12T15:30:18.165Z,6.97
2019-01-12T15:35:26.238Z,9.63
2019-01-12T15:40:31.876Z,8.03
2019-01-12T15:45:37.663Z,8.10
2019-01-12T15:50:45.357Z,9.63
2019-01-12T15:55:50.979Z,7.30
2019-01-12T16:00:56.809Z,8.93
2019-01-12T16:06:02.588Z,8.80
2019-01-12T16:11:08.989Z,10.87
2019-01-12T16:16:15.034Z,8.23
2019-01-12T16:21:21.211Z,10.63
2019-01-12T16:26:28.051Z,11.13
2019-01-12T16:31:34.332Z,11.97
2019-01-12T16:36:40.217Z,10.60
2019-01-12T16:41:46.173Z,8.70
2019-01-12T16:46:51.727Z,8.93
2019-01-12T16:51:57.297Z,10.03
2019-01-12T16:57:02.857Z,8.47
2019-01-12T17:02:08.418Z,7.87
2019-01-12T17:07:13.976Z,7.90
2019-01-12T17:12:19.727Z,11.83
2019-01-12T17:17:25.450Z,11.80
2019-01-12T17:22:31.845Z,13.83
2019-01-12T17:27:37.766Z,10.40
2019-01-12T17:32:43.857Z,9.70
2019-01-12T17:37:50.207Z,10.07
2019-01-12T17:42:57.666Z,12.47
2019-01-12T17:48:03.242Z,11.40
2019-01-12T17:53:08.868Z,14.23
2019-01-12T17:58:14.821Z,13.70
2019-01-12T18:03:20.801Z,11.43
2019-01-12T18:08:26.366Z,10.07
2019-01-12T18:13:32.129Z,11.67
2019-01-12T18:18:40.240Z,12.37
2019-01-12T18:23:46.042Z,12.83
2019-01-12T18:28:52.519Z,12.07
2019-01-12T18:33:58.177Z,13.77
2019-01-12T18:39:05.243Z,13.77
2019-01-12T18:44:10.999Z,14.90
2019-01-12T18:49:16.862Z,15.10
2019-01-12T18:54:22.629Z,12.77
2019-01-12T18:59:28.995Z,11.00
2019-01-12T19:04:34.628Z,15.70
2019-01-12T19:09:42.079Z,15.50
2019-01-12T19:14:48.027Z,12.10
2019-01-12T19:19:53.576Z,12.50
2019-01-12T19:25:00.089Z,11.60
2019-01-12T19:30:16.984Z,15.20
2019-01-12T19:35:23.228Z,11.43
2019-01-12T19:40:29.020Z,14.20
2019-01-12T19:45:34.722Z,10.00
2019-01-12T19:50:43.515Z,10.47
2019-01-12T19:55:49.494Z,8.70
2019-01-12T20:00:55.176Z,10.40
2019-01-12T20:06:01.078Z,9.77
2019-01-12T20:11:07.015Z,12.50
2019-01-12T20:16:13.091Z,17.67
2019-01-12T20:21:19.164Z,11.83
2019-01-12T20:26:26.869Z,16.87
2019-01-12T20:31:45.727Z,13.50
2019-01-12T20:37:15.065Z,12.00
2019-01-12T20:42:24.141Z,15.30
2019-01-12T20:47:41.607Z,12.63
2019-01-12T20:53:15.290Z,16.50
2019-01-12T20:58:38.763Z,12.17
2019-01-12T21:04:04.289Z,11.43
2019-01-12T21:09:16.690Z,9.27
2019-01-12T21:14:31.889Z,8.50
2019-01-12T21:19:37.491Z,10.20
2019-01-12T21:24:43.475Z,9.90
2019-01-12T21:29:49.430Z,10.57
2019-01-12T21:34:58.350Z,11.37
2019-01-12T21:40:08.359Z,7.73
2019-01-12T21:45:15.441Z,10.77
2019-01-12T21:50:21.206Z,11.93
2019-01-12T21:55:26.756Z,9.73
2019-01-12T22:00:32.423Z,8.97
2019-01-12T22:05:38.158Z,6.70
2019-01-12T22:10:44.674Z,7.43
2019-01-12T22:15:50.350Z,8.20
2019-01-12T22:20:55.903Z,8.63
2019-01-12T22:26:04.571Z,10.40
2019-01-12T22:31:10.741Z,7.80
2019-01-12T22:36:16.506Z,11.10
2019-01-12T22:41:23.743Z,11.30
2019-01-12T22:46:29.299Z,9.13
2019-01-12T22:51:34.857Z,8.93
2019-01-12T22:56:40.612Z,7.40
2019-01-12T23:01:48.490Z,8.80
2019-01-12T23:06:54.404Z,11.47
2019-01-12T23:12:00.417Z,9.83
2019-01-12T23:17:06.315Z,8.73
2019-01-12T23:22:13.386Z,8.67
2019-01-12T23:27:19.157Z,11.90
2019-01-12T23:32:25.151Z,6.03
2019-01-12T23:37:30.685Z,9.77
2019-01-12T23:42:36.317Z,8.67
2019-01-12T23:47:42.184Z,7.20
2019-01-12T23:52:47.747Z,9.73
2019-01-12T23:57:53.471Z,8.30
